Online since October of 2007


Active alerts


No alerts

Bigbaywx more information Bigbaywx


mount mesnard more information Mount Mesnard


visit our other weather sites:

Template documentation
and downloads

And another site


CBI


nearby metar reports

   
KSAW - Sawyer, Michigan
updated: Jul 23 2019 8:45 pm
clear  
clear  
   wind: calm
wind: calm
temperature: 68°F
dew point: 50°F
humidity: 53%
barometer: 30.09 inHg
clouds: clear
visibility: 10 mi
cloud details: clear
KSAW 240045Z 00000KT 10SM SKC 20/10 A3009
KESC - Escanaba, Michigan
updated: Jul 23 2019 8:56 pm
clear  
clear  
   wind: north 3.5 mph
wind: north 3.5 mph
temperature: 69.8°F
dew point: 50°F
humidity: 50%
barometer: 30.09 inHg
clouds: clear
visibility: 10 mi
cloud details: clear
KESC 240056Z AUTO 35003KT 10SM CLR 21/10 A3009 RMK AO2 SLP191 T02060100
KIMT - Iron Mountain, MI
updated: Jul 23 2019 8:54 pm
clear  
clear  
   wind: calm
wind: calm
temperature: 71.6°F
dew point: 48.2°F
humidity: 44%
barometer: 30.1 inHg
clouds: clear
visibility: 10 mi
cloud details: clear
KIMT 240054Z AUTO 00000KT 10SM CLR 22/09 A3010 RMK AO2 SLP191 T02170094
KGRB - Green Bay, WI
updated: Jul 23 2019 8:53 pm
clear  
clear  
   wind: ene 5.8 mph
wind: ene 5.8 mph
temperature: 73.4°F
dew point: 55.4°F
humidity: 53%
barometer: 30.09 inHg
clouds: clear
visibility: 10 mi
cloud details: clear
KGRB 240053Z 06005KT 10SM CLR 23/13 A3009 RMK AO2 SLP188 T02280133 $
KDET - Detroit, MI
updated: Jul 23 2019 8:53 pm
clear  
clear  
   wind: calm
wind: calm
temperature: 64.4°F
dew point: 57.2°F
humidity: 78%
barometer: 30.04 inHg
clouds: clear
visibility: 10 mi
cloud details: clear
KDET 240053Z 00000KT 10SM CLR 18/14 A3004 RMK AO2 SLP170 T01830144
 

script developed by  Saratoga-weather.org adapted for the template by  Weerstation Leuven

you find our weather info also at:

Weather Underground

midwestern weather network

WeatherlinkIP

Citizen Weather Observer Program (CWOP)

equipment we use:

weather-station
Davis VP2

weather-program
Davis Weatherlink.Com

Davis VP2

Davis Weatherlink.Com